Time;durP1;ratioP1;P1;durP2;ratioP2;P2;SDS_P1;SDS_P2;PMS_P1;PMS_P2;Temp;Humidity;BMP_temperature;BMP_pressure;BME280_temperature;BME280_humidity;BME280_pressure;Samples;Min_cycle;Max_cycle;Signal;HPM_P1;HPM_P2
2022/08/30 00:01:08;;;;;;;;;;;;;;;22.67;48.63;102084.84;7278764;19;154819;-64
2022/08/30 00:03:41;;;;;;;;;;;;;;;22.70;48.20;102078.63;7284412;19;152523;-62
2022/08/30 00:06:09;;;;;;;;;;;;;;;22.64;48.35;102077.81;7284553;19;152556;-62
2022/08/30 00:08:36;;;;;;;;;;;;;;;22.65;48.26;102068.22;7286301;19;153936;-62
2022/08/30 00:11:08;;;;;;;;;;;;;;;22.67;48.28;102073.56;7287684;19;151683;-62
2022/08/30 00:13:40;;;;;;;;;;;;;;;22.65;48.44;102056.09;7286302;19;152537;-64
2022/08/30 00:16:07;;;;;;;;;;;;;;;22.66;48.31;102053.00;7293902;19;153594;-63
2022/08/30 00:18:35;;;;;;;;;;;;;;;22.66;48.50;102054.97;7287008;19;152939;-62
2022/08/30 00:21:07;;;;;;;;;;;;;;;22.65;48.28;102050.47;7282885;19;153941;-62
2022/08/30 00:23:38;;;;;;;;;;;;;;;22.64;48.05;102049.63;7287850;19;152616;-62
2022/08/30 00:26:06;;;;;;;;;;;;;;;22.65;48.41;102056.94;7286280;19;152784;-62
2022/08/30 00:28:33;;;;;;;;;;;;;;;22.63;48.38;102048.78;7286390;19;155008;-63
2022/08/30 00:31:07;;;;;;;;;;;;;;;22.61;48.41;102045.44;7286383;19;151749;-62
2022/08/30 00:33:41;;;;;;;;;;;;;;;22.62;48.32;102049.09;7288130;19;152810;-62
2022/08/30 00:36:08;;;;;;;;;;;;;;;22.58;48.24;102040.38;7282026;19;153486;-62
2022/08/30 00:38:37;;;;;;;;;;;;;;;22.54;48.48;102044.94;7294461;19;152611;-63
2022/08/30 00:41:08;;;;;;;;;;;;;;;22.57;48.27;102044.34;7285608;19;153272;-63
2022/08/30 00:43:38;;;;;;;;;;;;;;;22.57;48.46;102046.34;7286812;19;153069;-63
2022/08/30 00:46:07;;;;;;;;;;;;;;;22.58;48.21;102051.66;7286574;19;153744;-63
2022/08/30 00:48:36;;;;;;;;;;;;;;;22.59;48.20;102055.31;7285326;19;152755;-63
2022/08/30 00:51:10;;;;;;;;;;;;;;;22.62;48.43;102052.72;7284906;19;152512;-62
2022/08/30 00:53:41;;;;;;;;;;;;;;;22.60;48.33;102057.84;7287446;19;152841;-62
2022/08/30 00:56:08;;;;;;;;;;;;;;;22.59;48.49;102056.16;7285175;19;153944;-62
2022/08/30 00:58:38;;;;;;;;;;;;;;;22.59;48.42;102058.13;7285515;19;152362;-64
2022/08/30 01:01:07;;;;;;;;;;;;;;;22.54;48.35;102055.34;7293286;19;153700;-62
2022/08/30 01:03:38;;;;;;;;;;;;;;;22.52;48.38;102058.47;7284616;19;152518;-63
2022/08/30 01:06:06;;;;;;;;;;;;;;;22.51;48.42;102055.94;7284058;19;153517;-62
2022/08/30 01:08:34;;;;;;;;;;;;;;;22.54;48.40;102060.97;7285753;19;154239;-63
2022/08/30 01:11:04;;;;;;;;;;;;;;;22.54;48.57;102061.81;7286073;19;151889;-62
2022/08/30 01:13:34;;;;;;;;;;;;;;;22.56;48.35;102064.34;7284540;19;152139;-62
2022/08/30 01:16:01;;;;;;;;;;;;;;;22.53;48.49;102054.50;7285138;19;153869;-63
2022/08/30 01:18:30;;;;;;;;;;;;;;;22.51;48.26;102056.78;7286269;19;152221;-62
2022/08/30 01:21:06;;;;;;;;;;;;;;;22.52;48.32;102054.81;7282004;19;153469;-63
2022/08/30 01:23:38;;;;;;;;;;;;;;;22.51;48.60;102050.31;7292593;19;152799;-63
2022/08/30 01:26:06;;;;;;;;;;;;;;;22.50;48.11;102055.09;7285292;19;151903;-62
2022/08/30 01:28:33;;;;;;;;;;;;;;;22.49;48.38;102063.84;7284247;19;154495;-62
2022/08/30 01:31:04;;;;;;;;;;;;;;;22.46;48.44;102058.81;7285230;19;152088;-62
2022/08/30 01:33:36;;;;;;;;;;;;;;;22.46;48.28;102056.00;7286002;19;153153;-62
2022/08/30 01:36:05;;;;;;;;;;;;;;;22.47;48.54;102052.03;7281535;19;153653;-62
2022/08/30 01:38:34;;;;;;;;;;;;;;;22.48;48.17;102056.56;7281384;19;151936;-62
2022/08/30 01:41:14;;;;;;;;;;;;;;;22.38;48.79;102051.84;7285107;19;153677;-63
2022/08/30 01:43:41;;;;;;;;;;;;;;;22.49;48.32;102044.97;7291226;19;153642;-62
2022/08/30 01:46:09;;;;;;;;;;;;;;;22.44;48.56;102050.63;7284038;19;152522;-63
2022/08/30 01:48:37;;;;;;;;;;;;;;;22.45;48.27;102054.31;7285122;19;153683;-62
2022/08/30 01:51:05;;;;;;;;;;;;;;;22.42;48.81;102063.34;7282730;19;152672;-62
2022/08/30 01:53:36;;;;;;;;;;;;;;;22.40;48.40;102065.59;7286427;19;152945;-63
2022/08/30 01:56:04;;;;;;;;;;;;;;;22.38;48.34;102062.25;7283210;19;153834;-63
2022/08/30 01:58:31;;;;;;;;;;;;;;;22.40;48.56;102068.41;7280930;19;152139;-62
2022/08/30 02:01:04;;;;;;;;;;;;;;;22.39;48.26;102069.59;7285084;19;153480;-62
2022/08/30 02:03:35;;;;;;;;;;;;;;;22.39;48.45;102072.41;7281471;19;153383;-62
2022/08/30 02:06:03;;;;;;;;;;;;;;;22.42;48.74;102066.16;7288099;19;158120;-64
2022/08/30 02:08:30;;;;;;;;;;;;;;;22.40;48.46;102066.44;7283879;19;153397;-62
2022/08/30 02:11:05;;;;;;;;;;;;;;;22.39;48.34;102069.59;7284408;19;151796;-62
2022/08/30 02:13:38;;;;;;;;;;;;;;;22.40;48.66;102069.25;7282339;19;152276;-62
2022/08/30 02:16:10;;;;;;;;;;;;;;;22.41;48.81;102064.47;7282793;19;154529;-62
2022/08/30 02:18:38;;;;;;;;;;;;;;;22.40;48.81;102066.44;7282237;19;151949;-62
2022/08/30 02:21:08;;;;;;;;;;;;;;;22.42;48.28;102064.19;7281724;19;152623;-63
2022/08/30 02:23:38;;;;;;;;;;;;;;;22.42;48.82;102063.34;7283555;19;152246;-62
2022/08/30 02:26:05;;;;;;;;;;;;;;;22.43;48.32;102051.81;7282345;19;152670;-62
2022/08/30 02:28:32;;;;;;;;;;;;;;;22.38;48.86;102060.28;7290471;19;151925;-62
2022/08/30 02:31:08;;;;;;;;;;;;;;;22.36;48.94;102059.72;7281142;19;152383;-62
2022/08/30 02:33:37;;;;;;;;;;;;;;;22.35;49.00;102057.22;7283082;19;152079;-62
2022/08/30 02:36:06;;;;;;;;;;;;;;;22.35;48.74;102065.69;7280237;19;153899;-63
2022/08/30 02:38:33;;;;;;;;;;;;;;;22.36;48.91;102064.50;7281290;19;153179;-63
2022/08/30 02:41:06;;;;;;;;;;;;;;;22.34;48.92;102053.56;7283243;19;152104;-62
2022/08/30 02:43:36;;;;;;;;;;;;;;;22.34;49.26;102061.16;7282335;19;153209;-63
2022/08/30 02:46:05;;;;;;;;;;;;;;;22.35;48.99;102060.84;7280016;19;152263;-63
2022/08/30 02:48:33;;;;;;;;;;;;;;;22.32;49.13;102046.53;7283643;19;152895;-62
2022/08/30 02:51:06;;;;;;;;;;;;;;;22.30;49.17;102052.47;7287263;19;153451;-62
2022/08/30 02:53:38;;;;;;;;;;;;;;;22.30;48.90;102043.19;7283552;19;153244;-62
2022/08/30 02:56:05;;;;;;;;;;;;;;;22.33;49.02;102051.03;7282022;19;152530;-62
2022/08/30 02:58:32;;;;;;;;;;;;;;;22.31;48.92;102051.31;7280620;19;152273;-63
2022/08/30 03:01:05;;;;;;;;;;;;;;;22.30;49.19;102054.44;7283015;19;154217;-62
2022/08/30 03:03:35;;;;;;;;;;;;;;;22.34;48.85;102050.75;7279360;19;152508;-62
2022/08/30 03:06:02;;;;;;;;;;;;;;;22.31;49.39;102059.75;7280969;19;152214;-64
2022/08/30 03:08:30;;;;;;;;;;;;;;;22.30;49.12;102049.66;7282674;19;153635;-64
2022/08/30 03:11:04;;;;;;;;;;;;;;;22.27;49.51;102047.41;7281276;19;154434;-63
2022/08/30 03:13:35;;;;;;;;;;;;;;;22.25;49.46;102041.25;7289792;19;152787;-63
2022/08/30 03:16:02;;;;;;;;;;;;;;;22.26;49.38;102040.09;7279380;19;152748;-64
2022/08/30 03:18:29;;;;;;;;;;;;;;;22.25;49.46;102046.88;7280346;19;152586;-62
2022/08/30 03:21:00;;;;;;;;;;;;;;;22.29;49.29;102024.59;7279144;19;153261;-63
2022/08/30 03:23:31;;;;;;;;;;;;;;;22.26;49.45;102036.47;7281238;19;152735;-63
2022/08/30 03:25:58;;;;;;;;;;;;;;;22.25;49.69;102026.34;7281876;19;155060;-63
2022/08/30 03:28:25;;;;;;;;;;;;;;;22.21;49.39;102028.91;7277052;19;153824;-62
2022/08/30 03:30:53;;;;;;;;;;;;;;;22.23;49.78;102026.63;7280622;19;153230;-63
2022/08/30 03:33:20;;;;;;;;;;;;;;;22.21;49.70;102034.53;7282889;19;152176;-63
2022/08/30 03:35:48;;;;;;;;;;;;;;;22.24;49.67;102033.09;7286460;19;152582;-63
2022/08/30 03:38:15;;;;;;;;;;;;;;;22.21;49.80;102033.69;7287345;19;151717;-63
2022/08/30 03:40:42;;;;;;;;;;;;;;;22.24;49.74;102024.63;7287385;19;152490;-63
2022/08/30 03:43:09;;;;;;;;;;;;;;;22.24;49.74;102021.81;7287155;19;154264;-62
2022/08/30 03:45:35;;;;;;;;;;;;;;;22.23;49.87;102028.59;7289425;19;151889;-62
2022/08/30 03:48:03;;;;;;;;;;;;;;;22.24;49.32;102017.03;7289252;19;152690;-63
2022/08/30 03:50:29;;;;;;;;;;;;;;;22.24;49.69;102021.81;7283636;19;153187;-63
2022/08/30 03:52:57;;;;;;;;;;;;;;;22.27;49.64;102012.78;7288870;19;152076;-62
2022/08/30 03:55:24;;;;;;;;;;;;;;;22.21;49.49;102011.16;7294007;19;153413;-62
2022/08/30 03:57:50;;;;;;;;;;;;;;;22.22;49.52;102013.66;7285471;19;152004;-63
2022/08/30 04:00:18;;;;;;;;;;;;;;;22.17;49.93;102011.72;7287942;19;153414;-63
2022/08/30 04:02:45;;;;;;;;;;;;;;;22.17;50.08;102008.91;7287374;19;152562;-63
2022/08/30 04:05:12;;;;;;;;;;;;;;;22.23;49.80;102006.91;7284780;19;154111;-62
2022/08/30 04:07:41;;;;;;;;;;;;;;;22.14;49.86;102008.66;7289203;19;152217;-63
2022/08/30 04:10:08;;;;;;;;;;;;;;;22.19;49.75;102000.19;7284925;19;153973;-63
2022/08/30 04:12:35;;;;;;;;;;;;;;;22.17;50.01;101996.81;7289378;19;153062;-63
2022/08/30 04:15:05;;;;;;;;;;;;;;;22.15;50.26;101994.31;7287205;19;152740;-63
2022/08/30 04:17:31;;;;;;;;;;;;;;;22.17;50.21;101999.63;7295108;19;154170;-63
2022/08/30 04:19:58;;;;;;;;;;;;;;;22.11;50.15;102006.44;7284020;19;153372;-63
2022/08/30 04:22:25;;;;;;;;;;;;;;;22.12;49.99;102000.50;7288610;19;153577;-63
2022/08/30 04:24:52;;;;;;;;;;;;;;;22.14;50.41;102003.03;7286969;19;152180;-63
2022/08/30 04:27:19;;;;;;;;;;;;;;;22.15;50.40;102005.56;7287710;19;152527;-63
2022/08/30 04:29:46;;;;;;;;;;;;;;;22.15;50.26;102001.91;7285544;19;152959;-63
2022/08/30 04:32:13;;;;;;;;;;;;;;;22.13;50.21;102004.16;7288727;19;152325;-63
2022/08/30 04:34:40;;;;;;;;;;;;;;;22.11;50.22;102000.81;7281982;19;152340;-62
2022/08/30 04:37:07;;;;;;;;;;;;;;;22.11;50.22;102000.81;7287636;19;154018;-63
2022/08/30 04:39:36;;;;;;;;;;;;;;;22.13;50.42;102001.34;7291824;19;152369;-64
2022/08/30 04:42:03;;;;;;;;;;;;;;;22.13;50.58;102002.19;7285827;19;152793;-63
2022/08/30 04:44:30;;;;;;;;;;;;;;;22.13;50.57;102009.78;7287782;19;151858;-63
2022/08/30 04:46:57;;;;;;;;;;;;;;;22.10;50.37;101999.13;7288016;19;153410;-63
2022/08/30 04:49:24;;;;;;;;;;;;;;;22.09;50.82;102005.88;7281443;19;154513;-62
2022/08/30 04:51:51;;;;;;;;;;;;;;;22.08;50.86;102001.38;7285511;19;152091;-62
2022/08/30 04:54:18;;;;;;;;;;;;;;;22.08;50.76;101992.94;7287207;19;153117;-63
2022/08/30 04:56:46;;;;;;;;;;;;;;;22.11;50.60;102001.66;7284239;19;153348;-62
2022/08/30 04:59:13;;;;;;;;;;;;;;;22.10;50.59;101999.13;7283395;19;152340;-63
2022/08/30 05:01:40;;;;;;;;;;;;;;;22.07;51.07;101997.75;7290899;19;152440;-63
2022/08/30 05:04:11;;;;;;;;;;;;;;;22.06;50.67;102007.34;7280326;19;152624;-63
2022/08/30 05:06:38;;;;;;;;;;;;;;;22.07;50.77;102006.22;7286644;19;152566;-63
2022/08/30 05:09:07;;;;;;;;;;;;;;;22.05;50.80;102008.47;7283825;19;154151;-63
2022/08/30 05:11:34;;;;;;;;;;;;;;;22.05;50.83;102008.47;7285940;19;152291;-63
2022/08/30 05:14:01;;;;;;;;;;;;;;;22.06;50.84;102018.59;7285968;19;153564;-62
2022/08/30 05:16:27;;;;;;;;;;;;;;;22.06;51.39;102017.75;7283117;19;154140;-62
2022/08/30 05:18:54;;;;;;;;;;;;;;;22.03;51.04;102016.34;7283342;19;152531;-62
2022/08/30 05:21:24;;;;;;;;;;;;;;;22.02;51.21;102016.66;7284882;19;152147;-63
2022/08/30 05:23:54;;;;;;;;;;;;;;;22.03;51.28;102023.97;7292045;19;153995;-63
2022/08/30 05:26:23;;;;;;;;;;;;;;;22.06;51.14;102020.56;7285629;19;154078;-63
2022/08/30 05:28:50;;;;;;;;;;;;;;;22.03;51.47;102021.16;7283755;19;153062;-63
2022/08/30 05:31:19;;;;;;;;;;;;;;;22.00;51.47;102011.31;7285253;19;152050;-63
2022/08/30 05:33:46;;;;;;;;;;;;;;;22.04;51.23;102012.41;7286103;19;153611;-63
2022/08/30 05:36:14;;;;;;;;;;;;;;;22.01;51.79;102006.53;7282253;19;153724;-63
2022/08/30 05:38:41;;;;;;;;;;;;;;;22.02;51.68;102011.88;7284916;19;152252;-62
2022/08/30 05:41:10;;;;;;;;;;;;;;;22.00;51.42;102010.47;7285454;19;153360;-63
2022/08/30 05:43:37;;;;;;;;;;;;;;;22.02;51.93;102009.06;7284254;19;152945;-63
2022/08/30 05:46:11;;;;;;;;;;;;;;;22.02;51.53;102014.69;7292882;19;153349;-62
2022/08/30 05:48:38;;;;;;;;;;;;;;;22.05;51.51;102013.25;7283436;19;152645;-63
2022/08/30 05:51:13;;;;;;;;;;;;;;;22.03;51.69;102026.78;7282436;19;152825;-63
2022/08/30 05:53:40;;;;;;;;;;;;;;;22.06;51.75;102026.19;7285749;19;152895;-63
2022/08/30 05:56:08;;;;;;;;;;;;;;;22.01;51.76;102026.22;7283875;19;152280;-62
2022/08/30 05:58:35;;;;;;;;;;;;;;;22.02;52.00;102022.28;7285072;19;151838;-62
2022/08/30 06:01:02;;;;;;;;;;;;;;;22.01;51.92;102024.25;7285506;19;153168;-63
2022/08/30 06:03:31;;;;;;;;;;;;;;;22.02;52.07;102022.28;7282670;19;153400;-63
2022/08/30 06:05:58;;;;;;;;;;;;;;;22.03;52.20;102019.16;7288179;19;154018;-63
2022/08/30 06:08:25;;;;;;;;;;;;;;;22.02;52.00;102030.72;7284656;19;153476;-63
2022/08/30 06:10:52;;;;;;;;;;;;;;;22.00;52.18;102014.13;7282643;19;151895;-62
2022/08/30 06:13:18;;;;;;;;;;;;;;;21.94;52.58;102020.91;7284851;19;152619;-63
2022/08/30 06:15:45;;;;;;;;;;;;;;;21.99;52.17;102022.84;7282568;19;154109;-62
2022/08/30 06:18:13;;;;;;;;;;;;;;;21.99;52.34;102022.84;7283595;19;152641;-62
2022/08/30 06:20:41;;;;;;;;;;;;;;;21.96;52.42;102021.47;7280829;19;153700;-63
2022/08/30 06:23:08;;;;;;;;;;;;;;;22.00;52.61;102024.53;7284168;19;153894;-63
2022/08/30 06:25:38;;;;;;;;;;;;;;;22.00;52.23;102021.72;7283542;19;152607;-62
2022/08/30 06:28:07;;;;;;;;;;;;;;;22.03;52.15;102012.72;7291212;19;152845;-63
2022/08/30 06:30:34;;;;;;;;;;;;;;;22.05;52.39;102021.69;7284197;19;152194;-63
2022/08/30 06:33:01;;;;;;;;;;;;;;;22.03;52.58;102021.16;7233522;19;155001;-63
2022/08/30 06:35:28;;;;;;;;;;;;;;;21.99;52.31;102011.59;7270299;19;154604;-62
2022/08/30 06:38:00;;;;;;;;;;;;;;;21.99;52.69;102014.41;7283111;19;152393;-62
2022/08/30 06:40:27;;;;;;;;;;;;;;;22.03;53.06;102018.34;7278216;19;153161;-62
2022/08/30 06:42:55;;;;;;;;;;;;;;;22.03;53.29;102021.16;7280451;19;154424;-61
2022/08/30 06:45:24;;;;;;;;;;;;;;;22.01;54.14;102024.25;7282599;19;153126;-62
2022/08/30 06:47:54;;;;;;;;;;;;;;;22.04;54.70;102020.00;7282673;19;153559;-62
2022/08/30 06:50:24;;;;;;;;;;;;;;;22.04;54.69;102022.81;7285394;19;153689;-61
2022/08/30 06:52:51;;;;;;;;;;;;;;;22.06;54.42;102017.75;7281985;19;153252;-62
2022/08/30 06:55:20;;;;;;;;;;;;;;;22.07;54.79;102030.69;7279608;19;152516;-62
2022/08/30 06:57:50;;;;;;;;;;;;;;;22.07;54.72;102033.50;7281595;19;151861;-61
2022/08/30 07:00:17;;;;;;;;;;;;;;;22.07;55.17;102039.13;7279224;19;153796;-61
2022/08/30 07:02:45;;;;;;;;;;;;;;;22.07;54.61;102028.72;7277573;19;153316;-62
2022/08/30 07:05:13;;;;;;;;;;;;;;;22.09;54.63;102031.22;7277415;19;153436;-62
2022/08/30 07:07:44;;;;;;;;;;;;;;;22.15;54.48;102027.25;7280793;19;152261;-63
2022/08/30 07:10:13;;;;;;;;;;;;;;;22.14;54.31;102029.22;7278651;19;155156;-63
2022/08/30 07:12:40;;;;;;;;;;;;;;;22.14;54.13;102028.38;7288867;19;151752;-62
2022/08/30 07:15:09;;;;;;;;;;;;;;;22.13;54.43;102027.53;7278869;19;155086;-62
2022/08/30 07:20:21;;;;;;;;;;;;;;;22.11;54.45;102035.44;7275436;19;154505;-63
2022/08/30 07:22:50;;;;;;;;;;;;;;;22.15;54.69;102039.34;7279893;19;153819;-62
2022/08/30 07:25:17;;;;;;;;;;;;;;;22.13;54.17;102037.94;7280707;19;152825;-63
2022/08/30 07:27:45;;;;;;;;;;;;;;;22.11;54.47;102035.44;7281688;19;153729;-62
2022/08/30 07:30:22;;;;;;;;;;;;;;;22.11;54.24;102040.22;7278352;19;152730;-63
2022/08/30 07:32:49;;;;;;;;;;;;;;;22.10;54.81;102038.53;7280281;19;152162;-62
2022/08/30 07:35:16;;;;;;;;;;;;;;;22.10;54.73;102044.16;7278494;19;152817;-62
2022/08/30 07:37:44;;;;;;;;;;;;;;;22.14;54.47;102042.44;7281672;19;152101;-63
2022/08/30 07:40:13;;;;;;;;;;;;;;;22.15;54.20;102035.69;7275533;19;152952;-62
2022/08/30 07:42:43;;;;;;;;;;;;;;;22.13;54.71;102046.38;7279943;19;152763;-62
2022/08/30 07:45:10;;;;;;;;;;;;;;;22.11;54.23;102049.53;7278909;19;152445;-62
2022/08/30 07:47:37;;;;;;;;;;;;;;;22.13;54.63;102041.59;7280116;19;153517;-62
2022/08/30 07:50:08;;;;;;;;;;;;;;;22.17;54.05;102045.50;7274299;19;153606;-62
2022/08/30 07:52:38;;;;;;;;;;;;;;;22.13;54.69;102050.03;7279650;19;152839;-63
2022/08/30 07:55:08;;;;;;;;;;;;;;;22.13;54.66;102054.84;7278253;19;152713;-63
2022/08/30 07:57:35;;;;;;;;;;;;;;;22.12;54.33;102053.19;7287605;19;152549;-62
2022/08/30 08:00:03;;;;;;;;;;;;;;;22.11;54.64;102060.78;7277078;19;152670;-62
2022/08/30 08:02:31;;;;;;;;;;;;;;;22.17;54.25;102058.75;7277927;19;153572;-63
2022/08/30 08:05:04;;;;;;;;;;;;;;;22.15;54.35;102055.41;7275457;19;151876;-62
2022/08/30 08:07:33;;;;;;;;;;;;;;;22.15;54.60;102052.59;7279610;19;153518;-62
2022/08/30 08:10:01;;;;;;;;;;;;;;;22.14;54.52;102054.56;7275934;19;153624;-63
2022/08/30 08:12:31;;;;;;;;;;;;;;;22.14;54.54;102051.75;7278682;19;154908;-63
2022/08/30 08:14:59;;;;;;;;;;;;;;;22.16;54.76;102057.09;7276799;19;152770;-63
2022/08/30 08:17:37;;;;;;;;;;;;;;;22.20;54.34;102065.78;7285305;19;153018;-63
2022/08/30 08:20:05;;;;;;;;;;;;;;;22.18;54.22;102066.06;7270899;19;152575;-62
2022/08/30 08:22:31;;;;;;;;;;;;;;;22.17;54.46;102067.19;7280259;19;153392;-63
2022/08/30 08:25:06;;;;;;;;;;;;;;;22.13;54.54;102069.75;7284625;19;153050;-63
2022/08/30 08:27:33;;;;;;;;;;;;;;;22.18;54.74;102063.25;7284879;19;152391;-63
2022/08/30 08:30:03;;;;;;;;;;;;;;;22.17;54.50;102061.56;7282731;19;152566;-63
2022/08/30 08:32:31;;;;;;;;;;;;;;;22.21;54.63;102061.84;7286008;19;152497;-63
2022/08/30 08:34:59;;;;;;;;;;;;;;;22.24;54.35;102066.88;7279170;19;154497;-62
2022/08/30 08:37:26;;;;;;;;;;;;;;;22.18;54.48;102063.25;7282382;19;153745;-62
2022/08/30 08:39:55;;;;;;;;;;;;;;;22.24;54.70;102066.88;7289319;19;152238;-62
2022/08/30 08:42:26;;;;;;;;;;;;;;;22.22;54.34;102058.72;7284616;19;155660;-63
2022/08/30 08:45:13;;;;;;;;;;;;;;;22.25;54.44;102068.56;7284535;19;152268;-63
2022/08/30 08:47:49;;;;;;;;;;;;;;;22.27;54.49;102069.09;7283768;19;153283;-63
2022/08/30 08:50:18;;;;;;;;;;;;;;;22.24;54.61;102064.06;7281442;19;153001;-63
2022/08/30 08:55:51;;;;;;;;;;;;;;;22.27;54.60;102067.13;7283597;19;153526;-63
2022/08/30 08:58:22;;;;;;;;;;;;;;;22.24;54.76;102062.09;7282382;19;153234;-63
2022/08/30 09:00:55;;;;;;;;;;;;;;;22.24;54.54;102064.91;7282119;19;153049;-63
2022/08/30 09:03:25;;;;;;;;;;;;;;;22.26;54.44;102071.06;7290103;19;153196;-62
2022/08/30 09:05:53;;;;;;;;;;;;;;;22.25;54.52;102062.94;7281232;19;152975;-63
2022/08/30 09:08:26;;;;;;;;;;;;;;;22.26;54.58;102065.44;7283346;19;152569;-62
2022/08/30 09:11:00;;;;;;;;;;;;;;;22.28;54.75;102071.63;7282037;19;152266;-62
2022/08/30 09:13:27;;;;;;;;;;;;;;;22.29;54.91;102067.69;7283632;19;152096;-62
2022/08/30 09:15:56;;;;;;;;;;;;;;;22.32;54.40;102069.06;7284545;19;153384;-63
2022/08/30 09:18:46;;;;;;;;;;;;;;;22.31;54.33;102064.56;7282140;19;154256;-62
2022/08/30 09:21:23;;;;;;;;;;;;;;;22.30;54.65;102066.56;7279303;19;152466;-62
2022/08/30 09:23:55;;;;;;;;;;;;;;;22.34;54.52;102067.66;7283282;19;152671;-62
2022/08/30 09:26:30;;;;;;;;;;;;;;;22.36;54.16;102065.34;7289470;19;154094;-62
2022/08/30 09:29:03;;;;;;;;;;;;;;;22.36;54.16;102065.34;7282728;19;152314;-63
2022/08/30 09:31:32;;;;;;;;;;;;;;;22.37;54.71;102075.50;7283598;19;153406;-62
2022/08/30 09:34:08;;;;;;;;;;;;;;;22.38;54.72;102070.72;7280854;19;152836;-63
2022/08/30 09:36:51;;;;;;;;;;;;;;;22.40;54.67;102072.09;7279654;19;153903;-62
2022/08/30 09:39:36;;;;;;;;;;;;;;;22.37;54.29;102075.50;7282052;19;155717;-63
2022/08/30 09:42:18;;;;;;;;;;;;;;;22.43;54.29;102073.50;7283871;19;152994;-62
2022/08/30 09:44:46;;;;;;;;;;;;;;;22.43;54.55;102071.50;7281286;19;152901;-63
2022/08/30 09:47:27;;;;;;;;;;;;;;;22.46;54.26;102073.72;7283170;19;152486;-62
2022/08/30 09:50:06;;;;;;;;;;;;;;;22.43;54.58;102068.69;7286689;19;152781;-62
2022/08/30 09:52:43;;;;;;;;;;;;;;;22.46;54.50;102076.56;7282407;19;155389;-62
2022/08/30 09:55:39;;;;;;;;;;;;;;;22.48;54.22;102063.03;7281985;19;152215;-62
2022/08/30 09:58:16;;;;;;;;;;;;;;;22.45;54.06;102079.66;7283111;19;152948;-62
2022/08/30 10:00:59;;;;;;;;;;;;;;;22.50;54.40;102073.97;7278725;19;152437;-63
2022/08/30 10:03:33;;;;;;;;;;;;;;;22.57;54.46;102071.69;7281313;19;155253;-63
2022/08/30 10:06:16;;;;;;;;;;;;;;;22.57;53.88;102072.53;7279544;19;152667;-62
2022/08/30 10:08:50;;;;;;;;;;;;;;;22.50;54.39;102062.72;7281750;19;154035;-62
2022/08/30 10:11:16;;;;;;;;;;;;;;;22.48;54.20;102063.03;7290166;19;152296;-63
2022/08/30 10:14:04;;;;;;;;;;;;;;;22.50;54.30;102063.56;7281219;19;152921;-62
2022/08/30 10:17:08;;;;;;;;;;;;;;;22.49;54.50;102070.31;7281062;19;152902;-63
2022/08/30 10:19:46;;;;;;;;;;;;;;;22.51;54.03;102058.78;7275362;19;152975;-63
2022/08/30 10:22:14;;;;;;;;;;;;;;;22.50;54.27;102062.72;7280400;19;153220;-64
2022/08/30 10:24:46;;;;;;;;;;;;;;;22.52;54.17;102066.09;7280750;19;152620;-62
2022/08/30 10:27:17;;;;;;;;;;;;;;;22.51;53.85;102070.03;7282372;19;152492;-62
2022/08/30 10:29:50;;;;;;;;;;;;;;;22.51;54.36;102062.44;7278828;19;153090;-63
2022/08/30 10:32:22;;;;;;;;;;;;;;;22.56;53.85;102059.56;7281411;19;153332;-62
2022/08/30 10:35:00;;;;;;;;;;;;;;;22.57;53.51;102064.06;7284485;19;153296;-63
2022/08/30 10:37:30;;;;;;;;;;;;;;;22.59;53.55;102070.25;7278573;19;155113;-63
2022/08/30 10:41:11;;;;;;;;;;;;;;;22.62;53.77;102069.63;7277331;19;152516;-62
2022/08/30 10:42:51;;;;;;;;;;;;;;;22.64;53.32;102060.91;7280603;19;153700;-62
2022/08/30 10:45:26;;;;;;;;;;;;;;;22.64;54.28;102049.63;7278889;19;152185;-62
2022/08/30 10:48:04;;;;;;;;;;;;;;;22.65;54.28;102058.94;7281749;19;152147;-62
2022/08/30 10:50:40;;;;;;;;;;;;;;;22.66;54.35;102063.44;7278399;19;153136;-62
2022/08/30 10:53:15;;;;;;;;;;;;;;;22.65;54.49;102061.75;7281285;19;152312;-65
2022/08/30 10:55:52;;;;;;;;;;;;;;;22.66;54.21;102053.00;7280537;19;152485;-62
2022/08/30 10:58:21;;;;;;;;;;;;;;;22.66;54.08;102052.16;7287193;19;152842;-62
2022/08/30 11:01:08;;;;;;;;;;;;;;;22.71;54.19;102055.81;7277370;19;152380;-63
2022/08/30 11:03:55;;;;;;;;;;;;;;;22.74;53.34;102045.91;7277703;19;153508;-62
2022/08/30 11:06:47;;;;;;;;;;;;;;;22.74;53.53;102048.72;7277256;19;152846;-62
2022/08/30 11:09:42;;;;;;;;;;;;;;;22.79;53.05;102052.34;7278780;19;154711;-62
2022/08/30 11:12:31;;;;;;;;;;;;;;;22.82;53.53;102048.06;7280591;19;153618;-62
2022/08/30 11:15:00;;;;;;;;;;;;;;;22.84;53.07;102046.66;7278526;19;152271;-62
2022/08/30 11:17:26;;;;;;;;;;;;;;;;;;7280847;19;153281;-62
2022/08/30 11:19:58;;;;;;;;;;;;;;;22.88;53.14;102044.91;7275481;19;180197;-62
2022/08/30 11:22:33;;;;;;;;;;;;;;;22.87;53.32;102042.38;7288129;19;152610;-62
2022/08/30 11:25:38;;;;;;;;;;;;;;;22.92;53.46;102047.97;7276978;19;154791;-62
2022/08/30 11:28:07;;;;;;;;;;;;;;;22.95;54.44;102051.03;7280749;19;152225;-63
2022/08/30 11:30:37;;;;;;;;;;;;;;;22.97;53.30;102054.41;7279685;19;153230;-62
2022/08/30 11:33:24;;;;;;;;;;;;;;;22.96;54.02;102051.88;7278216;19;154481;-62
2022/08/30 11:35:52;;;;;;;;;;;;;;;22.94;53.70;102037.25;7275695;19;153669;-63
2022/08/30 11:38:26;;;;;;;;;;;;;;;22.94;52.90;102048.53;7275902;19;152222;-62
2022/08/30 11:40:53;;;;;;;;;;;;;;;22.94;53.79;102046.53;7274694;19;154498;-63
2022/08/30 11:43:38;;;;;;;;;;;;;;;22.94;53.01;102048.53;7278664;19;152283;-62
2022/08/30 11:46:18;;;;;;;;;;;;;;;22.94;53.25;102049.34;7285063;19;153021;-62
2022/08/30 11:48:54;;;;;;;;;;;;;;;22.96;52.73;102047.09;7280722;19;153013;-61
2022/08/30 11:51:44;;;;;;;;;;;;;;;22.95;52.44;102044.56;7278371;19;153339;-63
2022/08/30 11:54:37;;;;;;;;;;;;;;;22.96;52.58;102049.06;7277023;19;156467;-62
2022/08/30 11:57:16;;;;;;;;;;;;;;;22.97;52.45;102043.13;7282492;19;152822;-62
2022/08/30 11:59:48;;;;;;;;;;;;;;;22.96;53.03;102029.31;7284570;19;153359;-62
2022/08/30 12:02:34;;;;;;;;;;;;;;;22.98;52.43;102035.53;7283905;19;153040;-63
2022/08/30 12:05:01;;;;;;;;;;;;;;;22.98;52.71;102035.53;7279525;19;152729;-63
2022/08/30 12:07:52;;;;;;;;;;;;;;;22.97;52.78;102031.00;7286610;19;154112;-62
2022/08/30 12:10:23;;;;;;;;;;;;;;;23.00;52.19;102030.41;7291229;19;154027;-62
2022/08/30 12:12:54;;;;;;;;;;;;;;;22.98;52.41;102030.72;7285566;19;153947;-62
2022/08/30 12:15:41;;;;;;;;;;;;;;;23.00;52.24;102033.22;7280533;19;153467;-62
2022/08/30 12:18:26;;;;;;;;;;;;;;;22.99;52.31;102040.00;7285962;19;151968;-62
2022/08/30 12:20:57;;;;;;;;;;;;;;;23.01;52.31;102021.66;7282211;19;152271;-62
2022/08/30 12:23:28;;;;;;;;;;;;;;;23.02;52.95;102028.16;7285267;19;153583;-63
2022/08/30 12:26:29;;;;;;;;;;;;;;;23.02;52.98;102028.16;7284634;19;152197;-63
2022/08/30 12:29:11;;;;;;;;;;;;;;;23.04;52.18;102021.06;7283244;19;152569;-62
2022/08/30 12:31:59;;;;;;;;;;;;;;;23.02;52.52;102030.97;7293133;19;154143;-62
2022/08/30 12:34:31;;;;;;;;;;;;;;;23.02;52.07;102030.97;7274239;19;154681;-62
2022/08/30 12:37:06;;;;;;;;;;;;;;;23.01;52.58;102026.47;7284890;19;153111;-62
2022/08/30 12:39:41;;;;;;;;;;;;;;;23.04;52.07;102034.31;7280056;19;152832;-62
2022/08/30 12:42:12;;;;;;;;;;;;;;;23.05;51.86;102033.16;7283726;19;152535;-63
2022/08/30 12:44:44;;;;;;;;;;;;;;;23.08;51.85;102029.75;7283891;19;153362;-62
2022/08/30 12:47:21;;;;;;;;;;;;;;;23.08;52.19;102031.75;7285745;19;152279;-62
2022/08/30 12:49:53;;;;;;;;;;;;;;;23.11;51.62;102034.81;7281291;19;153826;-63
2022/08/30 12:52:22;;;;;;;;;;;;;;;23.14;52.68;102031.38;7283497;19;153425;-61
2022/08/30 12:54:49;;;;;;;;;;;;;;;23.17;53.14;102030.75;7290206;19;154661;-63